Time;durP1;ratioP1;P1;durP2;ratioP2;P2;SDS_P1;SDS_P2;PMS_P1;PMS_P2;Temp;Humidity;BMP_temperature;BMP_pressure;BME280_temperature;BME280_humidity;BME280_pressure;Samples;Min_cycle;Max_cycle;Signal;HPM_P1;HPM_P2
2023/12/13 00:01:16;;;;;;;47.83;44.40;;;;;;;-0.20;100.00;101010.56;5031186;28;20054;-78
2023/12/13 00:03:43;;;;;;;42.97;39.63;;;;;;;-0.02;100.00;101023.88;5044242;28;20049;-72
2023/12/13 00:06:11;;;;;;;42.53;39.33;;;;;;;0.32;100.00;101021.00;5030336;28;20424;-78
2023/12/13 00:08:39;;;;;;;44.92;41.63;;;;;;;0.11;100.00;101016.63;5037808;28;20045;-78
2023/12/13 00:11:07;;;;;;;44.08;40.58;;;;;;;0.45;100.00;101032.03;5029719;28;20057;-78
2023/12/13 00:13:33;;;;;;;41.25;38.05;;;;;;;0.57;100.00;101025.75;5033556;28;20775;-77
2023/12/13 00:16:01;;;;;;;41.13;37.83;;;;;;;0.62;100.00;101014.91;5034756;28;20076;-72
2023/12/13 00:18:31;;;;;;;47.35;43.85;;;;;;;0.37;100.00;101021.44;5029477;28;20063;-72
2023/12/13 00:21:00;;;;;;;41.80;38.50;;;;;;;0.38;100.00;101020.47;5038122;28;20053;-77
2023/12/13 00:23:29;;;;;;;43.95;40.53;;;;;;;0.38;100.00;101008.22;5033364;28;20072;-77
2023/12/13 00:25:56;;;;;;;42.25;39.13;;;;;;;0.32;100.00;101007.94;5030432;28;20060;-77
2023/12/13 00:28:29;;;;;;;49.47;45.78;;;;;;;0.37;100.00;101000.53;5031405;28;20062;-78
2023/12/13 00:30:59;;;;;;;41.00;37.90;;;;;;;0.14;100.00;100997.25;5031267;28;20045;-72
2023/12/13 00:33:26;;;;;;;41.88;38.88;;;;;;;0.22;100.00;101007.91;5031536;28;20120;-78
2023/12/13 00:35:52;;;;;;;48.20;44.50;;;;;;;0.13;100.00;101001.66;5033074;28;20053;-77
2023/12/13 00:38:19;;;;;;;44.72;40.95;;;;;;;0.22;100.00;100993.03;5031125;28;20054;-78
2023/12/13 00:40:48;;;;;;;39.20;36.00;;;;;;;0.40;100.00;100997.66;5030936;28;20432;-78
2023/12/13 00:43:18;;;;;;;40.50;37.40;;;;;;;0.45;100.00;100995.44;5026632;28;20059;-79
2023/12/13 00:45:44;;;;;;;44.10;40.80;;;;;;;0.33;100.00;100989.50;5039199;28;20057;-78
2023/12/13 00:48:11;;;;;;;42.83;39.58;;;;;;;0.31;100.00;100995.84;5037152;28;20512;-78
2023/12/13 00:50:38;;;;;;;42.58;39.38;;;;;;;0.47;100.00;100990.91;5030196;28;20045;-78
2023/12/13 00:53:05;;;;;;;49.90;46.08;;;;;;;0.50;100.00;100989.81;5038875;28;20489;-78
2023/12/13 00:55:32;;;;;;;44.70;41.20;;;;;;;0.56;100.00;100978.84;5036355;28;20038;-78
2023/12/13 00:58:00;;;;;;;44.33;41.00;;;;;;;0.55;100.00;100972.78;5029744;28;20052;-78
2023/12/13 01:00:29;;;;;;;45.97;42.38;;;;;;;0.36;100.00;100968.31;5030874;28;20474;-72
2023/12/13 01:02:59;;;;;;;41.70;38.60;;;;;;;0.47;100.00;100961.34;5038184;28;20059;-78
2023/12/13 01:05:25;;;;;;;43.63;40.42;;;;;;;0.46;100.00;100965.75;5034967;28;20064;-78
2023/12/13 01:07:52;;;;;;;45.25;41.85;;;;;;;0.32;100.00;100958.28;5030436;28;20045;-77
2023/12/13 01:10:29;;;;;;;41.83;38.35;;;;;;;0.46;100.00;100952.69;5035865;28;20606;-78
2023/12/13 01:13:00;;;;;;;42.95;39.55;;;;;;;0.34;100.00;100948.53;5032597;28;20433;-72
2023/12/13 01:15:29;;;;;;;46.83;43.33;;;;;;;0.62;100.00;100952.97;5029066;28;20053;-72
2023/12/13 01:17:59;;;;;;;47.15;43.53;;;;;;;0.20;100.00;100957.56;5038372;28;20055;-72
2023/12/13 01:20:26;;;;;;;41.63;38.42;;;;;;;0.36;100.00;100957.03;5030891;28;20061;-72
2023/12/13 01:22:53;;;;;;;45.65;42.25;;;;;;;0.39;100.00;100952.41;5032392;28;20049;-78
2023/12/13 01:25:29;;;;;;;53.47;49.58;;;;;;;0.60;100.00;100964.53;5033160;28;20045;-78
2023/12/13 01:28:09;;;;;;;47.22;43.63;;;;;;;0.29;100.00;100961.16;5029702;28;20050;-78
2023/12/13 01:30:38;;;;;;;48.47;44.70;;;;;;;0.29;100.00;100948.91;5038441;28;20049;-72
2023/12/13 01:33:04;;;;;;;42.05;38.65;;;;;;;-0.28;100.00;100934.69;5030052;28;20060;-72
2023/12/13 01:35:31;;;;;;;46.13;42.67;;;;;;;-0.44;100.00;100929.13;5029968;28;20057;-72
2023/12/13 01:37:58;;;;;;;41.30;38.30;;;;;;;-0.32;100.00;100928.91;5028583;28;20085;-78
2023/12/13 01:40:30;;;;;;;43.08;39.88;;;;;;;-0.25;100.00;100931.81;5042386;28;20427;-77
2023/12/13 01:43:01;;;;;;;42.22;39.22;;;;;;;-0.33;100.00;100927.25;5037136;28;20049;-72
2023/12/13 01:45:29;;;;;;;39.55;36.65;;;;;;;-0.43;100.00;100938.59;5029175;28;20344;-78
2023/12/13 01:47:58;;;;;;;37.95;35.05;;;;;;;-0.39;100.00;100925.16;5034823;28;20044;-78
2023/12/13 01:50:26;;;;;;;39.67;36.15;;;;;;;-0.30;100.00;100926.16;5030336;28;20440;-78
2023/12/13 01:52:54;;;;;;;39.13;36.13;;;;;;;-0.38;100.00;100924.19;5026754;28;20049;-78
2023/12/13 01:55:22;;;;;;;37.70;34.72;;;;;;;-0.31;100.00;100920.09;5027504;28;20694;-77
2023/12/13 01:57:49;;;;;;;36.40;33.63;;;;;;;-0.29;100.00;100906.94;5029672;28;20111;-78
2023/12/13 02:00:17;;;;;;;35.97;33.10;;;;;;;-0.36;100.00;100901.41;5042105;28;20042;-77
2023/12/13 02:02:45;;;;;;;41.67;38.67;;;;;;;-0.40;100.00;100907.00;5029064;28;20053;-78
2023/12/13 02:05:14;;;;;;;45.17;41.75;;;;;;;-0.38;100.00;100900.72;5033805;28;20049;-71
2023/12/13 02:07:43;;;;;;;40.42;37.42;;;;;;;-0.21;100.00;100907.13;5029274;28;20041;-77
2023/12/13 02:10:10;;;;;;;43.10;39.83;;;;;;;-0.10;100.00;100909.59;5029304;28;20064;-77
2023/12/13 02:12:38;;;;;;;44.75;41.15;;;;;;;0.31;100.00;100907.81;5027742;28;20075;-77
2023/12/13 02:15:09;;;;;;;50.97;47.25;;;;;;;0.27;100.00;100893.34;5036668;28;20071;-78
2023/12/13 02:17:36;;;;;;;48.10;44.50;;;;;;;0.08;100.00;100896.75;5037313;28;20125;-78
2023/12/13 02:20:04;;;;;;;45.58;42.08;;;;;;;0.13;100.00;100904.19;5029190;28;20057;-78
2023/12/13 02:22:32;;;;;;;51.00;47.10;;;;;;;0.48;100.00;100895.84;5034726;28;20128;-78
2023/12/13 02:25:12;;;;;;;54.92;50.97;;;;;;;0.19;100.00;100896.66;5031854;28;20041;-72
2023/12/13 02:27:42;;;;;;;53.10;49.40;;;;;;;0.08;100.00;100888.91;5031207;28;20057;-78
2023/12/13 02:30:10;;;;;;;52.42;48.58;;;;;;;-0.04;100.00;100893.41;5035707;28;20580;-72
2023/12/13 02:32:38;;;;;;;53.63;49.53;;;;;;;0.07;100.00;100889.06;5029901;28;20053;-72
2023/12/13 02:35:07;;;;;;;54.95;50.95;;;;;;;0.09;100.00;100887.13;5027070;28;20107;-72
2023/12/13 02:37:36;;;;;;;55.15;50.83;;;;;;;-0.06;100.00;100886.66;5029301;28;20060;-71
2023/12/13 02:40:03;;;;;;;47.97;44.47;;;;;;;-0.12;100.00;100879.34;5023463;28;20061;-72
2023/12/13 02:42:30;;;;;;;40.92;37.53;;;;;;;0.24;100.00;100880.56;5027579;28;20044;-72
2023/12/13 02:44:57;;;;;;;45.13;41.60;;;;;;;0.34;100.00;100885.81;5028314;28;20049;-72
2023/12/13 02:47:25;;;;;;;52.92;48.83;;;;;;;0.29;100.00;100885.38;5034420;28;20080;-71
2023/12/13 02:49:52;;;;;;;48.67;44.92;;;;;;;0.11;100.00;100874.75;5029365;28;20056;-72
2023/12/13 02:52:20;;;;;;;47.42;43.22;;;;;;;0.25;100.00;100863.13;5030045;28;20143;-72
2023/12/13 02:54:48;;;;;;;48.05;44.45;;;;;;;0.12;100.00;100871.19;5031723;28;20049;-72
2023/12/13 02:57:15;;;;;;;51.13;47.10;;;;;;;-0.04;100.00;100869.91;5037738;28;20061;-78
2023/12/13 02:59:42;;;;;;;49.60;45.90;;;;;;;0.08;100.00;100873.25;5028672;28;20107;-78
2023/12/13 03:02:09;;;;;;;51.30;47.22;;;;;;;0.02;100.00;100872.94;5034847;28;20049;-77
2023/12/13 03:04:35;;;;;;;51.70;47.70;;;;;;;-0.15;100.00;100864.81;5036631;28;20045;-78
2023/12/13 03:07:04;;;;;;;49.33;45.53;;;;;;;0.06;100.00;100861.28;5035483;28;20041;-78
2023/12/13 03:09:31;;;;;;;51.10;47.20;;;;;;;-0.02;100.00;100860.16;5040486;28;20048;-78
2023/12/13 03:12:02;;;;;;;59.78;54.58;;;;;;;-0.12;100.00;100846.28;5032796;28;20057;-77
2023/12/13 03:14:31;;;;;;;46.95;43.10;;;;;;;-0.18;100.00;100862.47;5033177;28;20049;-77
2023/12/13 03:16:58;;;;;;;49.53;45.78;;;;;;;0.01;100.00;100850.41;5023118;28;20045;-77
2023/12/13 03:19:24;;;;;;;54.25;50.05;;;;;;;0.01;100.00;100847.81;5036513;28;20554;-77
2023/12/13 03:21:51;;;;;;;50.85;46.85;;;;;;;0.15;100.00;100850.00;5038691;28;20055;-77
2023/12/13 03:24:18;;;;;;;63.17;58.15;;;;;;;0.23;100.00;100860.63;5036241;28;20053;-78
2023/12/13 03:26:45;;;;;;;61.90;57.03;;;;;;;0.23;100.00;100845.78;5037351;28;20045;-72
2023/12/13 03:29:16;;;;;;;63.70;58.65;;;;;;;0.32;100.00;100838.09;5031810;28;20056;-72
2023/12/13 03:31:45;;;;;;;55.58;51.30;;;;;;;-0.02;100.00;100835.84;5032917;28;20088;-72
2023/12/13 03:34:16;;;;;;;48.40;44.25;;;;;;;-0.09;100.00;100832.94;5024539;28;20056;-72
2023/12/13 03:36:43;;;;;;;50.80;46.90;;;;;;;-0.33;100.00;100820.22;5036007;28;20053;-72
2023/12/13 03:39:10;;;;;;;59.42;54.40;;;;;;;-0.24;100.00;100813.41;5031593;28;20061;-72
2023/12/13 03:41:37;;;;;;;62.47;57.63;;;;;;;-0.29;100.00;100810.34;5030433;28;20046;-72
2023/12/13 03:44:04;;;;;;;53.47;49.47;;;;;;;-0.29;100.00;100810.34;5027802;28;20417;-72
2023/12/13 03:46:32;;;;;;;47.85;44.25;;;;;;;-0.47;100.00;100810.97;5035186;28;20065;-72
2023/12/13 03:48:59;;;;;;;46.63;42.78;;;;;;;-0.71;100.00;100806.06;5033059;28;20505;-78
2023/12/13 03:51:28;;;;;;;59.72;55.22;;;;;;;-0.64;100.00;100816.78;5033222;28;20489;-77
2023/12/13 03:53:55;;;;;;;52.58;48.63;;;;;;;-0.46;100.00;100806.56;5033891;28;20540;-78
2023/12/13 03:56:29;;;;;;;45.78;42.17;;;;;;;-0.20;100.00;100803.50;5034523;28;20049;-71
2023/12/13 03:58:56;;;;;;;47.20;43.42;;;;;;;-0.22;100.00;100797.59;5026172;28;20049;-72
2023/12/13 04:01:23;;;;;;;46.75;43.17;;;;;;;-0.44;100.00;100790.78;5031221;28;20052;-72
2023/12/13 04:03:51;;;;;;;45.78;42.38;;;;;;;-0.65;100.00;100794.28;5032865;28;21034;-72
2023/12/13 04:06:18;;;;;;;39.88;36.78;;;;;;;-0.53;100.00;100797.63;5034160;28;20056;-77
2023/12/13 04:08:45;;;;;;;43.47;40.08;;;;;;;-0.43;100.00;100801.09;5032891;28;20052;-78
2023/12/13 04:11:12;;;;;;;48.92;45.22;;;;;;;-0.60;100.00;100802.56;5030903;28;20060;-77
2023/12/13 04:13:39;;;;;;;44.83;41.42;;;;;;;-0.38;100.00;100805.94;5033132;28;20523;-72
2023/12/13 04:16:07;;;;;;;47.80;44.30;;;;;;;-0.39;100.00;100806.88;5031840;28;20053;-77
2023/12/13 04:18:33;;;;;;;44.90;41.50;;;;;;;-0.48;100.00;100813.72;5037057;28;20497;-77
2023/12/13 04:21:02;;;;;;;44.97;41.67;;;;;;;-0.76;100.00;100828.28;5031833;28;20595;-72
2023/12/13 04:23:29;;;;;;;40.53;37.53;;;;;;;-0.83;100.00;100829.75;5037845;28;20056;-78
2023/12/13 04:25:56;;;;;;;35.83;33.13;;;;;;;-0.70;100.00;100818.16;5038301;28;20064;-77
2023/12/13 04:28:23;;;;;;;33.42;30.73;;;;;;;-0.85;100.00;100818.63;5035177;28;20058;-72
2023/12/13 04:30:50;;;;;;;33.03;30.42;;;;;;;-0.82;100.00;100818.38;5031034;28;20048;-78
2023/12/13 04:33:18;;;;;;;33.92;31.33;;;;;;;-0.89;100.00;100804.19;5035034;28;20057;-78
2023/12/13 04:35:45;;;;;;;38.40;35.35;;;;;;;-1.00;100.00;100795.50;5033205;28;20046;-72
2023/12/13 04:38:13;;;;;;;44.42;40.45;;;;;;;-0.89;100.00;100798.97;5033673;28;20528;-72
2023/12/13 04:40:41;;;;;;;38.65;35.55;;;;;;;-0.87;100.00;100778.81;5030594;28;20056;-77
2023/12/13 04:43:14;;;;;;;39.42;36.42;;;;;;;-0.78;100.00;100767.59;5025208;28;20045;-77
2023/12/13 04:45:41;;;;;;;42.78;39.53;;;;;;;-0.36;100.00;100768.28;5030640;28;20053;-77
2023/12/13 04:48:08;;;;;;;45.03;41.63;;;;;;;-0.43;100.00;100766.34;5029958;28;20053;-77
2023/12/13 04:50:44;;;;;;;40.30;36.97;;;;;;;-0.41;100.00;100767.88;5034897;28;20052;-77
2023/12/13 04:53:19;;;;;;;35.78;32.88;;;;;;;-0.16;100.00;100758.69;5031242;28;20085;-78
2023/12/13 04:55:59;;;;;;;37.20;34.50;;;;;;;0.37;100.00;100750.50;5031831;28;20045;-77
2023/12/13 04:58:27;;;;;;;42.42;39.13;;;;;;;0.45;100.00;100750.63;5027653;28;20053;-78
2023/12/13 05:00:53;;;;;;;44.13;40.65;;;;;;;0.54;100.00;100755.97;5033163;28;20137;-77
2023/12/13 05:03:20;;;;;;;47.20;43.60;;;;;;;1.34;100.00;100754.63;5033865;28;20067;-78
2023/12/13 05:05:47;;;;;;;38.75;35.75;;;;;;;0.44;100.00;100748.13;5040278;28;20050;-77
2023/12/13 05:08:14;;;;;;;43.75;40.55;;;;;;;0.49;100.00;100745.94;5027468;28;20097;-77
2023/12/13 05:10:43;;;;;;;41.88;38.67;;;;;;;0.33;100.00;100753.50;5027075;28;20057;-77
2023/12/13 05:13:10;;;;;;;46.70;42.88;;;;;;;0.26;100.00;100766.28;5026308;28;20055;-77
2023/12/13 05:15:37;;;;;;;50.30;46.40;;;;;;;0.59;100.00;100767.66;5032464;28;20045;-77
2023/12/13 05:18:04;;;;;;;51.45;47.45;;;;;;;0.55;100.00;100771.53;5028415;28;20062;-77
2023/12/13 05:20:31;;;;;;;53.25;49.25;;;;;;;0.68;100.00;100771.22;5026205;28;20045;-77
2023/12/13 05:22:58;;;;;;;53.42;49.42;;;;;;;0.48;100.00;100765.19;5030198;28;20045;-78
2023/12/13 05:25:25;;;;;;;55.47;51.38;;;;;;;0.22;100.00;100767.53;5028106;28;20074;-77
2023/12/13 05:27:53;;;;;;;49.25;45.45;;;;;;;0.08;100.00;100763.53;5031370;28;20049;-77
2023/12/13 05:30:23;;;;;;;46.53;42.92;;;;;;;-0.09;100.00;100759.84;5033162;28;20432;-77
2023/12/13 05:32:50;;;;;;;46.25;42.65;;;;;;;-0.16;100.00;100774.38;5032235;28;20115;-77
2023/12/13 05:35:17;;;;;;;41.88;38.72;;;;;;;-0.03;100.00;100776.72;5029427;28;20050;-77
2023/12/13 05:37:44;;;;;;;46.22;42.90;;;;;;;-0.20;100.00;100775.59;5035765;28;20045;-77
2023/12/13 05:40:13;;;;;;;44.92;41.50;;;;;;;-0.33;100.00;100765.41;5030766;28;20525;-77
2023/12/13 05:42:40;;;;;;;43.65;40.45;;;;;;;-0.38;100.00;100754.53;5027682;28;20056;-77
2023/12/13 05:45:19;;;;;;;43.92;40.63;;;;;;;-0.31;100.00;100744.38;5030311;28;20625;-77
2023/12/13 05:47:45;;;;;;;47.10;43.60;;;;;;;-0.38;100.00;100738.88;5029170;28;20046;-77
2023/12/13 05:50:17;;;;;;;45.55;42.25;;;;;;;-0.42;100.00;100732.28;5030306;28;20068;-77
2023/12/13 05:52:44;;;;;;;49.08;45.58;;;;;;;-0.32;100.00;100742.75;5027319;28;20124;-77
2023/12/13 05:55:12;;;;;;;49.15;45.55;;;;;;;-0.25;100.00;100726.41;5034223;28;20045;-77
2023/12/13 05:57:39;;;;;;;48.30;44.72;;;;;;;-0.20;100.00;100728.63;5030711;28;20053;-78
2023/12/13 06:00:07;;;;;;;51.08;47.28;;;;;;;-0.24;100.00;100725.47;5031638;28;20065;-78
2023/12/13 06:02:36;;;;;;;48.92;45.22;;;;;;;0.04;100.00;100716.97;5025982;28;20045;-77
2023/12/13 06:05:03;;;;;;;52.65;48.38;;;;;;;0.36;100.00;100732.31;5026339;28;20057;-77
2023/12/13 06:07:30;;;;;;;54.17;50.03;;;;;;;0.35;100.00;100726.28;5035873;28;20103;-77
2023/12/13 06:09:57;;;;;;;50.28;46.38;;;;;;;0.27;100.00;100715.69;5036113;28;20089;-77
2023/12/13 06:12:24;;;;;;;51.00;47.20;;;;;;;0.42;100.00;100711.72;5035217;28;20049;-77
2023/12/13 06:14:59;;;;;;;49.30;45.60;;;;;;;0.50;100.00;100718.84;5031257;28;21202;-78
2023/12/13 06:17:29;;;;;;;51.90;47.75;;;;;;;0.63;100.00;100715.91;5029606;28;20083;-71
2023/12/13 06:19:57;;;;;;;58.30;53.42;;;;;;;0.66;100.00;100705.16;5023399;28;20333;-77
2023/12/13 06:22:32;;;;;;;68.88;59.15;;;;;;;0.68;100.00;100703.25;5027763;28;20425;-77
2023/12/13 06:25:00;;;;;;;60.95;55.97;;;;;;;0.73;100.00;100700.19;5014505;28;20125;-77
2023/12/13 06:27:28;;;;;;;57.92;53.28;;;;;;;0.73;100.00;100697.56;5028429;28;20049;-77
2023/12/13 06:29:55;;;;;;;59.22;54.42;;;;;;;0.65;100.00;100690.47;5030197;28;20057;-77
2023/12/13 06:32:21;;;;;;;56.80;52.30;;;;;;;0.69;100.00;100687.41;5028344;28;20441;-77
2023/12/13 06:34:48;;;;;;;51.50;47.40;;;;;;;0.95;100.00;100692.00;5028710;28;20489;-78
2023/12/13 06:37:16;;;;;;;53.22;49.10;;;;;;;0.76;100.00;100697.31;5025373;28;20063;-77
2023/12/13 06:39:53;;;;;;;58.17;53.67;;;;;;;0.80;100.00;100694.25;5032217;28;20052;-77
2023/12/13 06:42:19;;;;;;;61.35;56.75;;;;;;;1.00;100.00;100697.63;5030516;28;20045;-78
2023/12/13 06:44:47;;;;;;;59.17;54.67;;;;;;;1.08;100.00;100691.66;5027583;28;20041;-78
2023/12/13 06:47:14;;;;;;;59.40;54.78;;;;;;;0.95;100.00;100684.16;5029060;28;20048;-77
2023/12/13 06:49:46;;;;;;;58.72;53.97;;;;;;;1.03;100.00;100679.03;5031341;28;20049;-77
2023/12/13 06:52:13;;;;;;;63.00;58.13;;;;;;;1.32;100.00;100678.06;5030169;28;20461;-77
2023/12/13 06:54:41;;;;;;;63.63;58.47;;;;;;;1.52;100.00;100673.53;5035854;28;20771;-77
2023/12/13 06:57:09;;;;;;;63.17;58.17;;;;;;;1.68;100.00;100676.31;5033485;28;20060;-79
2023/12/13 06:59:36;;;;;;;64.30;59.30;;;;;;;1.15;100.00;100666.59;5026429;28;20559;-77
2023/12/13 07:02:03;;;;;;;67.05;61.58;;;;;;;1.71;100.00;100670.78;5036086;28;20060;-77
2023/12/13 07:04:31;;;;;;;61.70;56.53;;;;;;;1.95;100.00;100661.50;5029050;28;20088;-77
2023/12/13 07:07:00;;;;;;;65.72;60.45;;;;;;;2.15;100.00;100665.59;5035016;28;20129;-79
2023/12/13 07:09:30;;;;;;;63.55;58.75;;;;;;;2.11;100.00;100651.13;5038260;28;20057;-79
2023/12/13 07:11:59;;;;;;;68.60;62.95;;;;;;;2.13;100.00;100659.66;5029128;28;20519;-79
2023/12/13 07:14:26;;;;;;;75.50;69.70;;;;;;;2.18;100.00;100661.81;5031863;28;20041;-79
2023/12/13 07:16:53;;;;;;;67.78;62.47;;;;;;;2.34;100.00;100655.91;5027491;28;20049;-79
2023/12/13 07:19:20;;;;;;;72.13;66.50;;;;;;;2.39;100.00;100670.19;5035641;28;20068;-74
2023/12/13 07:21:46;;;;;;;77.03;71.10;;;;;;;2.67;100.00;100683.97;5036827;28;20048;-72
2023/12/13 07:24:13;;;;;;;80.10;73.80;;;;;;;2.71;100.00;100697.56;5032738;28;20050;-77
2023/12/13 07:26:40;;;;;;;82.60;76.15;;;;;;;2.85;100.00;100704.88;5032608;28;20037;-73
2023/12/13 07:29:09;;;;;;;81.22;75.13;;;;;;;3.10;100.00;100695.31;5033182;28;20057;-79
2023/12/13 07:31:39;;;;;;;78.68;72.57;;;;;;;2.97;100.00;100671.31;5032449;28;20536;-73
2023/12/13 07:34:06;;;;;;;83.25;76.90;;;;;;;3.14;100.00;100673.00;5031655;28;20057;-73
2023/12/13 07:36:33;;;;;;;88.15;81.25;;;;;;;3.04;100.00;100661.00;5039154;28;20743;-79
2023/12/13 07:39:00;;;;;;;86.85;79.95;;;;;;;3.03;100.00;100647.06;5040967;28;20053;-73
2023/12/13 07:41:29;;;;;;;75.88;69.68;;;;;;;3.15;100.00;100642.38;5030948;28;20049;-73
2023/12/13 07:43:59;;;;;;;83.88;77.18;;;;;;;3.25;100.00;100632.53;5024236;28;20111;-73
2023/12/13 07:46:30;;;;;;;103.93;96.22;;;;;;;3.56;100.00;100614.38;5034044;28;20053;-79
2023/12/13 07:49:04;;;;;;;97.47;89.75;;;;;;;3.81;100.00;100606.50;5036573;28;20517;-77
2023/12/13 07:51:32;;;;;;;90.60;83.20;;;;;;;3.81;100.00;100599.47;5032916;28;20406;-79
2023/12/13 07:54:01;;;;;;;95.00;87.55;;;;;;;4.01;100.00;100599.13;5032030;28;20053;-79
2023/12/13 07:56:29;;;;;;;92.80;85.47;;;;;;;4.25;100.00;100588.56;5035143;28;20068;-80
2023/12/13 07:58:58;;;;;;;100.85;92.45;;;;;;;4.48;100.00;100569.44;5037534;28;20050;-79
2023/12/13 08:01:41;;;;;;;99.15;90.57;;;;;;;4.73;100.00;100560.47;5037651;28;20080;-79
2023/12/13 08:04:08;;;;;;;104.07;95.40;;;;;;;4.94;100.00;100562.50;5040584;28;20072;-79
2023/12/13 08:06:47;;;;;;;108.35;99.13;;;;;;;5.21;100.00;100565.66;5032467;28;20049;-79
2023/12/13 08:09:20;;;;;;;113.07;102.47;;;;;;;5.23;100.00;100567.13;5039826;28;20413;-79
2023/12/13 08:11:48;;;;;;;122.80;112.63;;;;;;;5.13;100.00;100563.88;5035374;28;20793;-79
2023/12/13 08:14:15;;;;;;;116.70;107.20;;;;;;;5.12;100.00;100574.59;5031132;28;20057;-79
2023/12/13 08:16:43;;;;;;;109.55;100.53;;;;;;;5.21;100.00;100570.91;5036165;28;20131;-79
2023/12/13 08:19:10;;;;;;;107.68;98.82;;;;;;;5.53;100.00;100569.84;5030337;28;20060;-79
2023/12/13 08:21:41;;;;;;;111.72;102.63;;;;;;;5.99;100.00;100579.53;5035407;28;20041;-79
2023/12/13 08:24:09;;;;;;;117.47;107.97;;;;;;;6.09;100.00;100585.41;5030852;28;20065;-79
2023/12/13 08:26:36;;;;;;;124.32;113.97;;;;;;;6.24;100.00;100596.78;5032533;28;20306;-79
2023/12/13 08:29:04;;;;;;;127.78;117.38;;;;;;;6.43;100.00;100601.53;5032962;28;20640;-79
2023/12/13 08:31:31;;;;;;;128.55;118.07;;;;;;;6.79;100.00;100607.88;5032126;28;20045;-79
2023/12/13 08:34:00;;;;;;;132.27;121.35;;;;;;;7.14;100.00;100611.56;5033040;28;20041;-79
2023/12/13 08:36:27;;;;;;;146.95;134.85;;;;;;;7.17;100.00;100615.66;5021236;28;20081;-74
2023/12/13 08:38:54;;;;;;;148.90;136.75;;;;;;;7.33;100.00;100615.44;5034976;28;20141;-73
2023/12/13 08:41:21;;;;;;;162.68;149.45;;;;;;;7.06;100.00;100601.13;5028874;28;20049;-73
2023/12/13 08:43:48;;;;;;;158.63;145.85;;;;;;;6.97;100.00;100600.41;5029204;28;20390;-73
2023/12/13 08:46:14;;;;;;;154.10;141.90;;;;;;;7.01;100.00;100579.72;5027330;28;20050;-73
2023/12/13 08:48:41;;;;;;;146.88;135.60;;;;;;;6.95;100.00;100569.91;5030109;28;20049;-73
2023/12/13 08:51:10;;;;;;;133.63;123.40;;;;;;;7.03;100.00;100573.25;5028266;28;20049;-73
2023/12/13 08:53:36;;;;;;;131.93;122.07;;;;;;;6.93;100.00;100554.25;5032460;28;20049;-74
2023/12/13 08:56:04;;;;;;;135.98;125.80;;;;;;;7.03;100.00;100538.91;5036638;28;20065;-73
2023/12/13 08:58:31;;;;;;;135.50;124.93;;;;;;;7.14;100.00;100513.00;5031874;28;20072;-74
2023/12/13 09:01:00;;;;;;;141.88;130.23;;;;;;;7.06;100.00;100493.66;5029330;28;20437;-73
2023/12/13 09:03:27;;;;;;;144.18;131.93;;;;;;;7.06;100.00;100492.84;5031418;28;20045;-73
2023/12/13 09:05:55;;;;;;;148.75;136.65;;;;;;;7.10;100.00;100484.31;5031578;28;20052;-73
2023/12/13 09:08:23;;;;;;;149.05;136.15;;;;;;;7.17;100.00;100481.78;5029830;28;20052;-73
2023/12/13 09:10:50;;;;;;;150.48;138.77;;;;;;;7.30;100.00;100455.47;5034277;28;20436;-73
2023/12/13 09:13:17;;;;;;;160.98;148.68;;;;;;;7.17;100.00;100446.59;5030611;28;20054;-73
2023/12/13 09:15:44;;;;;;;153.60;141.60;;;;;;;6.93;100.00;100443.34;5032956;28;20437;-73
2023/12/13 09:18:11;;;;;;;144.30;132.55;;;;;;;7.06;100.00;100430.25;5031732;28;20060;-74
2023/12/13 09:20:37;;;;;;;138.13;126.63;;;;;;;7.42;100.00;100442.56;5030602;28;20076;-73
2023/12/13 09:23:06;;;;;;;142.60;130.82;;;;;;;7.32;100.00;100456.09;5029568;28;20065;-79
2023/12/13 09:25:34;;;;;;;143.52;131.48;;;;;;;7.78;100.00;100455.63;5033074;28;20433;-79
2023/12/13 09:28:10;;;;;;;147.80;135.52;;;;;;;8.18;100.00;100450.53;5029336;28;20417;-79
2023/12/13 09:30:37;;;;;;;154.25;142.00;;;;;;;8.69;100.00;100455.44;5030307;28;20137;-79
2023/12/13 09:33:04;;;;;;;160.20;148.70;;;;;;;7.93;100.00;100444.13;5029207;28;20781;-79
2023/12/13 09:35:32;;;;;;;81.07;74.68;;;;;;;7.60;100.00;100450.00;5037052;28;20060;-79
2023/12/13 09:38:01;;;;;;;56.53;52.10;;;;;;;8.47;100.00;100449.47;5028911;28;20072;-73
2023/12/13 09:40:28;;;;;;;75.15;69.53;;;;;;;9.13;100.00;100456.72;5029086;28;20057;-73
2023/12/13 09:42:56;;;;;;;146.25;135.52;;;;;;;9.85;100.00;100464.88;5027788;28;20053;-79
2023/12/13 09:45:24;;;;;;;92.38;86.18;;;;;;;8.37;100.00;100448.19;5028953;28;20045;-79
2023/12/13 09:47:52;;;;;;;41.17;38.00;;;;;;;7.84;100.00;100442.59;5031306;28;20053;-79
2023/12/13 09:50:19;;;;;;;36.20;33.40;;;;;;;7.70;100.00;100434.59;5033139;28;20505;-79
2023/12/13 09:52:48;;;;;;;33.85;31.25;;;;;;;7.89;100.00;100435.72;5027731;28;20045;-79
2023/12/13 09:55:18;;;;;;;32.85;30.35;;;;;;;7.91;100.00;100439.00;5029348;28;20078;-78
2023/12/13 09:57:44;;;;;;;32.00;29.60;;;;;;;7.98;100.00;100431.91;5033056;28;20057;-79
2023/12/13 10:00:15;;;;;;;31.30;29.00;;;;;;;7.89;100.00;100427.78;5031910;28;20049;-78
2023/12/13 10:02:48;;;;;;;29.40;27.25;;;;;;;7.83;100.00;100417.19;5028484;28;20049;-79
2023/12/13 10:05:18;;;;;;;29.42;27.17;;;;;;;7.83;100.00;100396.84;5028596;28;20081;-79
2023/12/13 10:07:45;;;;;;;30.20;27.90;;;;;;;7.83;100.00;100391.56;5021603;28;20088;-78
2023/12/13 10:10:32;;;;;;;43.30;39.80;;;;;;;10.19;100.00;100375.34;5027454;28;20497;-78
2023/12/13 10:13:02;;;;;;;30.90;28.40;;;;;;;8.66;100.00;100378.25;5027282;28;20124;-73
2023/12/13 10:15:31;;;;;;;32.05;29.65;;;;;;;8.33;100.00;100368.38;5033254;28;20045;-77
2023/12/13 10:17:59;;;;;;;32.78;29.98;;;;;;;9.56;100.00;100368.00;5028380;28;20045;-79
2023/12/13 10:20:27;;;;;;;33.13;30.52;;;;;;;8.68;100.00;100376.19;5026369;28;20088;-78
2023/12/13 10:23:02;;;;;;;36.72;33.95;;;;;;;9.92;100.00;100380.75;5031143;28;20045;-79
2023/12/13 10:25:30;;;;;;;32.40;29.80;;;;;;;9.75;100.00;100385.72;5032774;28;20581;-78
2023/12/13 10:27:58;;;;;;;28.58;26.23;;;;;;;8.92;100.00;100382.75;5029442;28;20053;-79
2023/12/13 10:30:26;;;;;;;34.25;30.63;;;;;;;11.29;100.00;100367.06;5028281;28;20406;-79
2023/12/13 10:32:54;;;;;;;29.30;26.90;;;;;;;9.05;100.00;100366.06;5030348;28;20053;-79
2023/12/13 10:35:22;;;;;;;29.00;26.65;;;;;;;9.11;100.00;100370.53;5029053;28;20041;-78
2023/12/13 10:37:49;;;;;;;29.63;27.25;;;;;;;8.40;100.00;100363.13;5029820;28;20049;-78
2023/12/13 10:40:17;;;;;;;26.80;24.60;;;;;;;7.99;100.00;100364.00;5027115;28;20053;-78
2023/12/13 10:42:46;;;;;;;30.25;27.60;;;;;;;7.88;100.00;100353.97;5025082;28;20524;-78
2023/12/13 10:45:15;;;;;;;29.25;26.85;;;;;;;7.82;100.00;100352.91;5022190;28;20050;-79
2023/12/13 10:47:45;;;;;;;25.75;23.75;;;;;;;7.87;100.00;100339.94;5028251;28;20510;-78
2023/12/13 10:50:16;;;;;;;27.75;25.55;;;;;;;7.72;100.00;100342.72;5031062;28;20045;-73
2023/12/13 10:52:45;;;;;;;25.15;23.15;;;;;;;7.52;100.00;100331.22;5029653;28;20420;-73
2023/12/13 10:55:14;;;;;;;29.20;27.20;;;;;;;7.44;100.00;100326.06;5032270;28;20465;-73
2023/12/13 10:57:42;;;;;;;32.78;30.58;;;;;;;7.46;100.00;100322.22;5033675;28;20052;-73
2023/12/13 11:00:10;;;;;;;34.03;31.83;;;;;;;7.52;100.00;100313.53;5023609;28;20049;-73
2023/12/13 11:02:48;;;;;;;34.42;32.33;;;;;;;7.54;100.00;100306.22;5026887;28;20050;-74
2023/12/13 11:05:17;;;;;;;36.17;33.88;;;;;;;7.66;100.00;100295.91;5028581;28;20076;-74
2023/12/13 11:07:44;;;;;;;36.42;34.03;;;;;;;7.57;100.00;100300.56;5025557;28;20528;-73
2023/12/13 11:10:13;;;;;;;43.80;40.10;;;;;;;9.43;100.00;100294.63;5024971;28;20054;-73